Time;durP1;ratioP1;P1;durP2;ratioP2;P2;SDS_P1;SDS_P2;PMS_P1;PMS_P2;Temp;Humidity;BMP_temperature;BMP_pressure;BME280_temperature;BME280_humidity;BME280_pressure;Samples;Min_cycle;Max_cycle;Signal;HPM_P1;HPM_P2
2024/01/25 00:01:08;;;;;;;7.97;3.20;;;;;;;;;;5040315;28;20227;-35
2024/01/25 00:03:37;;;;;;;8.43;2.70;;;;;;;;;;5043688;28;20237;-39
2024/01/25 00:06:04;;;;;;;8.47;2.30;;;;;;;;;;5043914;28;20296;-37
2024/01/25 00:08:31;;;;;;;8.60;2.50;;;;;;;;;;5038266;28;20213;-35
2024/01/25 00:10:58;;;;;;;11.70;2.43;;;;;;;;;;5045307;28;20230;-36
2024/01/25 00:13:25;;;;;;;7.83;2.43;;;;;;;;;;5052510;28;20208;-37
2024/01/25 00:15:53;;;;;;;7.23;2.20;;;;;;;;;;5043449;28;20198;-36
2024/01/25 00:18:20;;;;;;;8.53;2.20;;;;;;;;;;5041992;28;20202;-36
2024/01/25 00:20:49;;;;;;;9.87;2.77;;;;;;;;;;5039736;28;20535;-36
2024/01/25 00:23:16;;;;;;;9.67;3.03;;;;;;;;;;5046477;28;20198;-34
2024/01/25 00:25:44;;;;;;;13.00;4.43;;;;;;;;;;5030426;28;20292;-41
2024/01/25 00:28:12;;;;;;;16.67;4.07;;;;;;;;;;5039021;28;20206;-32
2024/01/25 00:30:39;;;;;;;11.10;3.53;;;;;;;;;;5044099;28;20512;-38
2024/01/25 00:33:07;;;;;;;9.47;3.30;;;;;;;;;;5042763;28;20201;-37
2024/01/25 00:35:34;;;;;;;12.60;3.67;;;;;;;;;;5037640;28;20583;-35
2024/01/25 00:38:04;;;;;;;12.73;3.20;;;;;;;;;;5038414;28;20206;-35
2024/01/25 00:40:31;;;;;;;10.87;2.93;;;;;;;;;;5041002;28;20313;-38
2024/01/25 00:42:58;;;;;;;8.00;2.50;;;;;;;;;;5040289;28;20316;-33
2024/01/25 00:45:29;;;;;;;5.77;1.93;;;;;;;;;;5038035;28;20217;-36
2024/01/25 00:47:57;;;;;;;10.57;2.37;;;;;;;;;;5040505;28;20205;-38
2024/01/25 00:50:26;;;;;;;11.50;2.50;;;;;;;;;;5036018;28;20235;-34
2024/01/25 00:52:54;;;;;;;8.93;2.30;;;;;;;;;;5043651;28;20206;-37
2024/01/25 00:55:23;;;;;;;7.70;2.03;;;;;;;;;;5032807;28;20228;-36
2024/01/25 00:57:51;;;;;;;8.13;1.80;;;;;;;;;;5033482;28;20212;-38
2024/01/25 01:00:19;;;;;;;9.50;2.33;;;;;;;;;;5038229;28;20254;-32
2024/01/25 01:02:47;;;;;;;9.60;1.97;;;;;;;;;;5041475;28;20214;-40
2024/01/25 01:05:14;;;;;;;7.10;2.40;;;;;;;;;;5042467;28;20264;-39
2024/01/25 01:07:44;;;;;;;8.57;2.00;;;;;;;;;;5044824;28;20214;-38
2024/01/25 01:10:14;;;;;;;8.30;2.30;;;;;;;;;;5039240;28;20226;-40
2024/01/25 01:12:45;;;;;;;14.60;2.60;;;;;;;;;;5047799;28;20217;-39
2024/01/25 01:15:12;;;;;;;9.00;2.77;;;;;;;;;;5048262;28;20202;-39
2024/01/25 01:17:39;;;;;;;11.03;2.20;;;;;;;;;;5040489;28;20300;-34
2024/01/25 01:20:07;;;;;;;8.53;2.13;;;;;;;;;;5040888;28;20217;-38
2024/01/25 01:22:34;;;;;;;9.23;2.10;;;;;;;;;;5038725;28;20215;-38
2024/01/25 01:25:02;;;;;;;10.43;2.23;;;;;;;;;;5033788;28;20226;-36
2024/01/25 01:27:29;;;;;;;9.77;2.30;;;;;;;;;;5045582;28;20293;-36
2024/01/25 01:29:58;;;;;;;8.03;2.40;;;;;;;;;;5039950;28;20230;-37
2024/01/25 01:32:25;;;;;;;6.97;2.20;;;;;;;;;;5040460;28;20215;-33
2024/01/25 01:34:52;;;;;;;11.50;2.50;;;;;;;;;;5038754;28;20213;-32
2024/01/25 01:37:19;;;;;;;10.23;2.13;;;;;;;;;;5044034;28;20301;-36
2024/01/25 01:39:47;;;;;;;20.63;3.00;;;;;;;;;;5031413;28;20232;-40
2024/01/25 01:42:14;;;;;;;10.33;2.03;;;;;;;;;;5038246;28;20284;-36
2024/01/25 01:44:41;;;;;;;8.87;2.20;;;;;;;;;;5050076;28;20213;-37
2024/01/25 01:47:10;;;;;;;6.90;2.70;;;;;;;;;;5038182;28;20205;-39
2024/01/25 01:49:37;;;;;;;13.57;2.30;;;;;;;;;;5044702;28;20222;-40
2024/01/25 01:52:05;;;;;;;8.63;2.40;;;;;;;;;;5045334;28;20316;-41
2024/01/25 01:54:32;;;;;;;5.47;2.03;;;;;;;;;;5035698;28;20292;-38
2024/01/25 01:57:00;;;;;;;9.50;2.30;;;;;;;;;;5049799;28;20202;-36
2024/01/25 01:59:30;;;;;;;12.67;2.40;;;;;;;;;;5043355;28;20222;-37
2024/01/25 02:01:57;;;;;;;9.30;2.47;;;;;;;;;;5038951;28;20211;-34
2024/01/25 02:04:26;;;;;;;11.30;2.40;;;;;;;;;;5042289;28;20297;-37
2024/01/25 02:06:53;;;;;;;7.87;2.37;;;;;;;;;;5041301;28;20202;-34
2024/01/25 02:09:21;;;;;;;14.93;2.00;;;;;;;;;;5035691;28;20238;-37
2024/01/25 02:11:48;;;;;;;20.67;2.73;;;;;;;;;;5046340;28;20225;-36
2024/01/25 02:14:15;;;;;;;18.17;2.93;;;;;;;;;;5030988;28;20214;-35
2024/01/25 02:16:45;;;;;;;10.97;2.30;;;;;;;;;;5040344;28;20207;-39
2024/01/25 02:19:12;;;;;;;7.07;1.90;;;;;;;;;;5041802;28;20209;-36
2024/01/25 02:21:41;;;;;;;12.27;2.10;;;;;;;;;;5033960;28;20374;-35
2024/01/25 02:24:09;;;;;;;8.27;2.17;;;;;;;;;;5031282;28;20216;-39
2024/01/25 02:26:37;;;;;;;11.27;2.50;;;;;;;;;;5033098;28;20298;-37
2024/01/25 02:29:04;;;;;;;17.13;3.07;;;;;;;;;;5046576;28;20266;-38
2024/01/25 02:31:32;;;;;;;11.47;2.23;;;;;;;;;;5031151;28;20262;-34
2024/01/25 02:33:59;;;;;;;14.40;2.40;;;;;;;;;;5045821;28;20205;-38
2024/01/25 02:36:26;;;;;;;13.27;2.53;;;;;;;;;;5031821;28;20238;-36
2024/01/25 02:38:53;;;;;;;10.90;2.80;;;;;;;;;;5036421;28;20308;-36
2024/01/25 02:41:22;;;;;;;12.33;2.30;;;;;;;;;;5031977;28;20305;-39
2024/01/25 02:43:49;;;;;;;14.83;2.90;;;;;;;;;;5032861;28;20203;-37
2024/01/25 02:46:16;;;;;;;7.63;1.87;;;;;;;;;;5051063;28;20206;-36
2024/01/25 02:48:44;;;;;;;11.07;2.07;;;;;;;;;;5034300;28;20210;-31
2024/01/25 02:51:11;;;;;;;10.17;2.43;;;;;;;;;;5044484;28;20221;-34
2024/01/25 02:53:38;;;;;;;12.67;2.80;;;;;;;;;;5036849;28;20269;-40
2024/01/25 02:56:07;;;;;;;17.73;2.73;;;;;;;;;;5044720;28;20206;-34
2024/01/25 02:58:35;;;;;;;11.03;3.03;;;;;;;;;;5046694;28;20220;-39
2024/01/25 03:01:02;;;;;;;9.10;2.03;;;;;;;;;;5030633;28;20236;-36
2024/01/25 03:03:30;;;;;;;13.23;2.80;;;;;;;;;;5029439;28;20241;-34
2024/01/25 03:05:57;;;;;;;12.07;2.50;;;;;;;;;;5038280;28;20210;-37
2024/01/25 03:08:24;;;;;;;11.83;2.10;;;;;;;;;;5049686;28;20210;-36
2024/01/25 03:10:51;;;;;;;14.97;3.13;;;;;;;;;;5031346;28;20238;-35
2024/01/25 03:13:19;;;;;;;10.50;2.47;;;;;;;;;;5050691;28;20258;-39
2024/01/25 03:15:47;;;;;;;11.00;2.40;;;;;;;;;;5040338;28;20285;-34
2024/01/25 03:18:15;;;;;;;14.17;2.20;;;;;;;;;;5037812;28;20209;-35
2024/01/25 03:20:42;;;;;;;17.27;2.60;;;;;;;;;;5046293;28;20230;-36
2024/01/25 03:23:09;;;;;;;13.17;2.43;;;;;;;;;;5050760;28;20202;-35
2024/01/25 03:25:36;;;;;;;8.90;2.27;;;;;;;;;;5031292;28;20210;-35
2024/01/25 03:28:06;;;;;;;16.07;3.20;;;;;;;;;;5041148;28;20195;-35
2024/01/25 03:30:33;;;;;;;9.77;1.80;;;;;;;;;;5040772;28;20233;-33
2024/01/25 03:33:02;;;;;;;12.47;2.67;;;;;;;;;;5041541;28;20232;-36
2024/01/25 03:35:29;;;;;;;13.53;1.87;;;;;;;;;;5036466;28;20206;-34
2024/01/25 03:37:56;;;;;;;12.43;2.87;;;;;;;;;;5038377;28;20219;-35
2024/01/25 03:40:24;;;;;;;9.90;2.80;;;;;;;;;;5040408;28;20241;-36
2024/01/25 03:42:51;;;;;;;10.33;2.20;;;;;;;;;;5044125;28;20209;-34
2024/01/25 03:45:19;;;;;;;6.00;2.27;;;;;;;;;;5043377;28;20265;-37
2024/01/25 03:47:46;;;;;;;11.40;2.13;;;;;;;;;;5041313;28;20236;-35
2024/01/25 03:50:15;;;;;;;13.97;2.90;;;;;;;;;;5038734;28;20236;-39
2024/01/25 03:52:42;;;;;;;10.17;2.40;;;;;;;;;;5030234;28;20234;-39
2024/01/25 03:55:11;;;;;;;15.77;2.90;;;;;;;;;;5024193;28;20203;-34
2024/01/25 03:57:40;;;;;;;11.23;2.47;;;;;;;;;;5030909;28;20286;-35
2024/01/25 04:00:08;;;;;;;13.67;2.73;;;;;;;;;;5038134;28;20404;-33
2024/01/25 04:02:35;;;;;;;10.60;2.77;;;;;;;;;;5031344;28;20207;-39
2024/01/25 04:05:03;;;;;;;11.37;2.93;;;;;;;;;;5041814;28;20202;-38
2024/01/25 04:07:31;;;;;;;11.33;2.20;;;;;;;;;;5042722;28;20285;-37
2024/01/25 04:09:58;;;;;;;7.40;1.23;;;;;;;;;;5039063;28;20230;-39
2024/01/25 04:12:27;;;;;;;16.83;3.70;;;;;;;;;;5049186;28;20214;-32
2024/01/25 04:14:55;;;;;;;9.10;2.47;;;;;;;;;;5050125;28;20214;-37
2024/01/25 04:17:22;;;;;;;8.73;2.23;;;;;;;;;;5050500;28;20241;-42
2024/01/25 04:19:50;;;;;;;8.50;2.50;;;;;;;;;;5038538;28;20230;-39
2024/01/25 04:22:17;;;;;;;15.90;2.63;;;;;;;;;;5044292;28;20212;-37
2024/01/25 04:24:49;;;;;;;8.70;2.63;;;;;;;;;;5037817;28;20210;-34
2024/01/25 04:27:16;;;;;;;16.63;2.23;;;;;;;;;;5044996;28;20210;-38
2024/01/25 04:29:43;;;;;;;12.53;2.87;;;;;;;;;;5046562;28;20229;-36
2024/01/25 04:32:11;;;;;;;9.07;2.53;;;;;;;;;;5036018;28;20276;-36
2024/01/25 04:34:39;;;;;;;15.50;2.83;;;;;;;;;;5044433;28;20212;-39
2024/01/25 04:37:06;;;;;;;11.33;2.57;;;;;;;;;;5045522;28;20210;-36
2024/01/25 04:39:33;;;;;;;12.67;2.77;;;;;;;;;;5037958;28;20234;-37
2024/01/25 04:42:03;;;;;;;5.30;1.73;;;;;;;;;;5037897;28;20205;-34
2024/01/25 04:44:31;;;;;;;11.70;2.63;;;;;;;;;;5036034;28;20238;-37
2024/01/25 04:46:59;;;;;;;9.37;2.33;;;;;;;;;;5037140;28;20209;-37
2024/01/25 04:49:26;;;;;;;2.20;1.37;;;;;;;;;;5033417;28;20227;-34
2024/01/25 04:51:53;;;;;;;10.27;2.97;;;;;;;;;;5038561;28;20232;-37
2024/01/25 04:54:20;;;;;;;8.53;1.87;;;;;;;;;;5034706;28;20219;-35
2024/01/25 04:56:47;;;;;;;10.53;2.50;;;;;;;;;;5047786;28;20214;-34
2024/01/25 04:59:16;;;;;;;16.23;2.83;;;;;;;;;;5032660;28;20202;-36
2024/01/25 05:01:43;;;;;;;14.90;3.50;;;;;;;;;;5047837;28;20317;-38
2024/01/25 05:04:18;;;;;;;10.97;2.50;;;;;;;;;;5040224;28;20223;-37
2024/01/25 05:06:47;;;;;;;13.97;2.53;;;;;;;;;;5042259;28;20248;-36
2024/01/25 05:09:14;;;;;;;10.97;1.90;;;;;;;;;;5039164;28;20215;-37
2024/01/25 05:11:42;;;;;;;10.77;2.47;;;;;;;;;;5036538;28;20218;-35
2024/01/25 05:14:09;;;;;;;9.77;2.80;;;;;;;;;;5044257;28;20224;-38
2024/01/25 05:16:38;;;;;;;12.63;3.27;;;;;;;;;;5042252;28;20211;-33
2024/01/25 05:19:05;;;;;;;8.93;2.43;;;;;;;;;;5033933;28;20209;-37
2024/01/25 05:21:32;;;;;;;15.10;2.37;;;;;;;;;;5046114;28;20216;-36
2024/01/25 05:24:00;;;;;;;9.30;2.03;;;;;;;;;;5046335;28;20212;-33
2024/01/25 05:26:27;;;;;;;14.67;3.67;;;;;;;;;;5033064;28;20203;-37
2024/01/25 05:28:54;;;;;;;14.70;2.40;;;;;;;;;;5039366;28;20207;-40
2024/01/25 05:31:21;;;;;;;11.03;2.60;;;;;;;;;;5039237;28;20225;-34
2024/01/25 05:33:50;;;;;;;11.80;2.77;;;;;;;;;;5040298;28;20206;-39
2024/01/25 05:36:17;;;;;;;14.20;2.77;;;;;;;;;;5052535;28;20242;-37
2024/01/25 05:38:44;;;;;;;13.43;3.23;;;;;;;;;;5045371;28;20237;-39
2024/01/25 05:41:19;;;;;;;11.00;2.27;;;;;;;;;;5046835;28;20250;-33
2024/01/25 05:43:46;;;;;;;16.60;3.50;;;;;;;;;;5042841;28;20216;-37
2024/01/25 05:46:13;;;;;;;15.13;2.73;;;;;;;;;;5029503;28;20199;-40
2024/01/25 05:48:40;;;;;;;10.97;2.83;;;;;;;;;;5042337;28;20213;-35
2024/01/25 05:51:09;;;;;;;10.03;2.73;;;;;;;;;;5039958;28;20231;-38
2024/01/25 05:53:36;;;;;;;12.87;2.57;;;;;;;;;;5042388;28;20240;-34
2024/01/25 05:56:04;;;;;;;11.60;2.67;;;;;;;;;;5031527;28;20305;-34
2024/01/25 05:58:31;;;;;;;8.47;2.13;;;;;;;;;;5045067;28;20212;-33
2024/01/25 06:00:58;;;;;;;15.93;3.93;;;;;;;;;;5041506;28;20391;-38
2024/01/25 06:03:25;;;;;;;13.97;2.47;;;;;;;;;;5045404;28;20206;-35
2024/01/25 06:05:52;;;;;;;12.50;2.63;;;;;;;;;;5035550;28;20234;-36
2024/01/25 06:08:21;;;;;;;12.90;2.40;;;;;;;;;;5039550;28;20231;-35
2024/01/25 06:10:48;;;;;;;10.80;2.43;;;;;;;;;;5037764;28;20234;-36
2024/01/25 06:13:15;;;;;;;10.23;2.00;;;;;;;;;;5041828;28;20300;-35
2024/01/25 06:15:43;;;;;;;10.77;2.30;;;;;;;;;;5035687;28;20207;-36
2024/01/25 06:18:10;;;;;;;11.17;2.23;;;;;;;;;;5042197;28;20304;-37
2024/01/25 06:20:37;;;;;;;11.13;2.50;;;;;;;;;;5032534;28;20227;-36
2024/01/25 06:23:04;;;;;;;13.90;2.33;;;;;;;;;;5048755;28;20208;-37
2024/01/25 06:25:34;;;;;;;13.73;1.93;;;;;;;;;;5034327;28;20216;-33
2024/01/25 06:28:01;;;;;;;7.53;2.63;;;;;;;;;;5039946;28;20206;-37
2024/01/25 06:30:29;;;;;;;12.10;3.03;;;;;;;;;;5036269;28;20299;-38
2024/01/25 06:32:56;;;;;;;8.40;2.37;;;;;;;;;;5047727;28;20271;-36
2024/01/25 06:35:23;;;;;;;12.80;2.50;;;;;;;;;;5030686;28;20218;-38
2024/01/25 06:37:50;;;;;;;7.23;2.27;;;;;;;;;;5039569;28;20267;-36
2024/01/25 06:40:18;;;;;;;9.37;2.73;;;;;;;;;;5030145;28;20222;-35
2024/01/25 06:42:47;;;;;;;11.40;2.17;;;;;;;;;;5040913;28;20277;-33
2024/01/25 06:45:14;;;;;;;12.30;3.03;;;;;;;;;;5042145;28;20212;-36
2024/01/25 06:47:41;;;;;;;11.67;2.83;;;;;;;;;;5050029;28;20282;-33
2024/01/25 06:50:09;;;;;;;8.27;2.70;;;;;;;;;;5041109;28;20253;-32
2024/01/25 06:52:36;;;;;;;9.53;2.37;;;;;;;;;;5041297;28;20225;-33
2024/01/25 06:55:03;;;;;;;13.33;3.10;;;;;;;;;;5036892;28;20207;-35
2024/01/25 06:57:30;;;;;;;10.57;2.30;;;;;;;;;;5035620;28;20213;-36
2024/01/25 06:59:59;;;;;;;11.77;2.83;;;;;;;;;;5049005;28;20233;-34
2024/01/25 07:02:26;;;;;;;14.10;3.60;;;;;;;;;;5030765;28;20203;-36
2024/01/25 07:04:54;;;;;;;9.90;3.60;;;;;;;;;;5033896;28;20221;-38
2024/01/25 07:07:22;;;;;;;9.47;3.03;;;;;;;;;;5038010;28;20309;-34
2024/01/25 07:09:49;;;;;;;9.57;2.63;;;;;;;;;;5033140;28;20230;-36
2024/01/25 07:12:16;;;;;;;7.27;2.43;;;;;;;;;;5040861;28;20233;-37
2024/01/25 07:14:43;;;;;;;6.90;2.27;;;;;;;;;;5040732;28;20210;-37
2024/01/25 07:17:12;;;;;;;11.43;2.30;;;;;;;;;;5051009;28;20205;-35
2024/01/25 07:19:41;;;;;;;13.67;2.87;;;;;;;;;;5044241;28;20320;-36
2024/01/25 07:22:15;;;;;;;9.83;2.83;;;;;;;;;;5041073;28;20234;-33
2024/01/25 07:24:42;;;;;;;9.13;2.20;;;;;;;;;;5032012;28;20209;-36
2024/01/25 07:27:10;;;;;;;9.33;2.30;;;;;;;;;;5035817;28;20210;-34
2024/01/25 07:29:37;;;;;;;11.10;3.10;;;;;;;;;;5045829;28;20231;-35
2024/01/25 07:32:14;;;;;;;10.17;3.60;;;;;;;;;;5037731;28;20214;-36
2024/01/25 07:34:42;;;;;;;14.60;3.03;;;;;;;;;;5039106;28;20221;-33
2024/01/25 07:37:11;;;;;;;13.10;4.00;;;;;;;;;;5040966;28;20210;-32
2024/01/25 07:39:38;;;;;;;9.67;2.60;;;;;;;;;;5039829;28;20232;-34
2024/01/25 07:42:05;;;;;;;15.77;3.83;;;;;;;;;;5036331;28;20260;-38
2024/01/25 07:44:32;;;;;;;13.37;3.17;;;;;;;;;;5043559;28;20620;-33
2024/01/25 07:47:00;;;;;;;9.93;3.00;;;;;;;;;;5035661;28;20207;-31
2024/01/25 07:49:27;;;;;;;8.53;2.43;;;;;;;;;;5043217;28;20234;-33
2024/01/25 07:51:56;;;;;;;9.17;2.67;;;;;;;;;;5048448;28;20210;-33
2024/01/25 07:54:23;;;;;;;11.20;3.20;;;;;;;;;;5029772;28;20226;-38
2024/01/25 07:56:50;;;;;;;6.37;2.07;;;;;;;;;;5047344;28;20210;-37
2024/01/25 07:59:17;;;;;;;8.43;3.30;;;;;;;;;;5042106;28;20207;-33
2024/01/25 08:01:45;;;;;;;9.70;2.33;;;;;;;;;;5048632;28;20209;-34
2024/01/25 08:04:15;;;;;;;8.27;2.43;;;;;;;;;;5044264;28;20229;-34
2024/01/25 08:06:42;;;;;;;9.93;2.33;;;;;;;;;;5043978;28;20210;-33
2024/01/25 08:09:11;;;;;;;7.17;2.80;;;;;;;;;;5038853;28;20202;-31
2024/01/25 08:11:38;;;;;;;8.57;3.30;;;;;;;;;;5042973;28;20256;-35
2024/01/25 08:14:06;;;;;;;10.93;2.23;;;;;;;;;;5041431;28;20289;-34
2024/01/25 08:16:35;;;;;;;9.37;2.60;;;;;;;;;;5030380;28;20210;-34
2024/01/25 08:19:02;;;;;;;9.00;2.53;;;;;;;;;;5031428;28;20210;-37
2024/01/25 08:21:30;;;;;;;10.10;2.77;;;;;;;;;;5047041;28;20287;-34
2024/01/25 08:23:57;;;;;;;16.10;3.70;;;;;;;;;;5031266;28;20208;-34
2024/01/25 08:26:25;;;;;;;10.93;3.73;;;;;;;;;;5043751;28;20199;-38
2024/01/25 08:28:52;;;;;;;9.23;3.67;;;;;;;;;;5038767;28;20229;-33
2024/01/25 08:31:20;;;;;;;11.87;3.80;;;;;;;;;;5040434;28;20241;-35
2024/01/25 08:33:48;;;;;;;13.40;3.60;;;;;;;;;;5037311;28;20276;-34
2024/01/25 08:36:15;;;;;;;9.60;3.63;;;;;;;;;;5039584;28;20232;-35
2024/01/25 08:38:42;;;;;;;13.27;3.30;;;;;;;;;;5042489;28;20234;-35
2024/01/25 08:41:11;;;;;;;9.50;3.50;;;;;;;;;;5034711;28;20222;-35
2024/01/25 08:43:40;;;;;;;12.60;2.77;;;;;;;;;;5045009;28;20214;-38
2024/01/25 08:46:07;;;;;;;11.20;4.17;;;;;;;;;;5034557;28;20206;-39
2024/01/25 08:48:34;;;;;;;11.50;3.50;;;;;;;;;;5042737;28;20208;-35
2024/01/25 08:51:03;;;;;;;9.73;3.27;;;;;;;;;;5042098;28;20231;-34
2024/01/25 08:53:31;;;;;;;8.40;3.27;;;;;;;;;;5040574;28;20224;-38
2024/01/25 08:55:58;;;;;;;7.57;2.73;;;;;;;;;;5035019;28;20203;-32
2024/01/25 08:58:32;;;;;;;9.87;3.43;;;;;;;;;;5039038;28;20298;-34
2024/01/25 09:01:01;;;;;;;10.47;2.87;;;;;;;;;;5039545;28;20257;-34
2024/01/25 09:03:28;;;;;;;7.23;3.30;;;;;;;;;;5031009;28;20198;-36
2024/01/25 09:05:55;;;;;;;13.53;3.73;;;;;;;;;;5047187;28;20230;-37
2024/01/25 09:08:24;;;;;;;11.70;3.47;;;;;;;;;;5041515;28;20205;-36
2024/01/25 09:10:51;;;;;;;11.23;2.87;;;;;;;;;;5043257;28;20271;-36
2024/01/25 09:13:19;;;;;;;12.57;3.30;;;;;;;;;;5041661;28;20231;-36
2024/01/25 09:15:46;;;;;;;9.80;2.93;;;;;;;;;;5042899;28;20209;-36
2024/01/25 09:18:32;;;;;;;12.83;2.60;;;;;;;;;;5038737;28;20221;-36
2024/01/25 09:21:10;;;;;;;8.23;2.30;;;;;;;;;;5037671;28;20223;-38
2024/01/25 09:23:37;;;;;;;11.83;3.10;;;;;;;;;;5030313;28;20206;-39
2024/01/25 09:26:04;;;;;;;8.90;2.67;;;;;;;;;;5033730;28;20210;-35
2024/01/25 09:28:34;;;;;;;8.80;2.40;;;;;;;;;;5041988;28;20228;-34
2024/01/25 09:31:02;;;;;;;6.63;2.37;;;;;;;;;;5034545;28;20227;-33
2024/01/25 09:33:33;;;;;;;7.60;2.03;;;;;;;;;;5034139;28;20631;-37
2024/01/25 09:36:01;;;;;;;10.53;2.60;;;;;;;;;;5042572;28;20195;-36
2024/01/25 09:38:32;;;;;;;6.83;1.93;;;;;;;;;;5041163;28;20211;-34
2024/01/25 09:41:01;;;;;;;8.03;2.47;;;;;;;;;;5047553;28;20245;-35
2024/01/25 09:43:28;;;;;;;7.40;2.33;;;;;;;;;;5031118;28;20257;-40
2024/01/25 09:45:55;;;;;;;7.33;2.13;;;;;;;;;;5037525;28;20201;-34
2024/01/25 09:48:23;;;;;;;9.80;2.50;;;;;;;;;;5039133;28;20287;-36
2024/01/25 09:50:53;;;;;;;8.10;2.63;;;;;;;;;;5037856;28;20226;-37
2024/01/25 09:53:37;;;;;;;12.63;2.60;;;;;;;;;;5044346;28;20299;-41
2024/01/25 09:56:09;;;;;;;6.23;2.10;;;;;;;;;;5022900;28;20232;-36
2024/01/25 09:58:42;;;;;;;10.00;2.57;;;;;;;;;;5042334;28;20209;-39
2024/01/25 10:01:11;;;;;;;9.33;2.87;;;;;;;;;;5041788;28;20237;-38
2024/01/25 10:04:04;;;;;;;14.47;3.23;;;;;;;;;;5041849;28;20261;-34
2024/01/25 10:06:38;;;;;;;10.00;2.57;;;;;;;;;;5035535;28;20463;-37
2024/01/25 10:09:09;;;;;;;9.23;2.37;;;;;;;;;;5045403;28;20317;-37
2024/01/25 10:11:37;;;;;;;10.40;2.83;;;;;;;;;;5038875;28;20203;-32
2024/01/25 10:14:08;;;;;;;9.43;2.80;;;;;;;;;;5042120;28;20272;-38
2024/01/25 10:16:36;;;;;;;11.40;2.90;;;;;;;;;;5041736;28;20198;-35
2024/01/25 10:19:07;;;;;;;18.03;2.77;;;;;;;;;;5038795;28;20202;-37
2024/01/25 10:21:37;;;;;;;11.80;2.83;;;;;;;;;;5046298;28;20287;-36
2024/01/25 10:24:05;;;;;;;12.07;2.53;;;;;;;;;;5029085;28;20293;-35
2024/01/25 10:26:36;;;;;;;15.27;2.80;;;;;;;;;;5044677;28;20209;-34
2024/01/25 10:29:05;;;;;;;11.67;3.30;;;;;;;;;;5045612;28;20203;-32
2024/01/25 10:34:15;;;;;;;10.77;2.60;;;;;;;;;;5026074;28;20234;-38
2024/01/25 10:36:43;;;;;;;9.57;2.33;;;;;;;;;;5045937;28;20202;-35
2024/01/25 10:42:27;;;;;;;16.97;2.77;;;;;;;;;;4991838;28;20212;-38
2024/01/25 10:44:57;;;;;;;12.30;2.50;;;;;;;;;;4990082;28;20201;-37
2024/01/25 10:47:30;;;;;;;13.80;2.97;;;;;;;;;;5044062;28;20218;-32
2024/01/25 10:49:58;;;;;;;15.97;3.70;;;;;;;;;;5041878;28;20266;-37
2024/01/25 10:52:26;;;;;;;13.97;2.37;;;;;;;;;;5041859;28;20214;-36
2024/01/25 10:54:56;;;;;;;11.60;2.23;;;;;;;;;;5038060;28;20230;-36
2024/01/25 10:57:24;;;;;;;9.67;3.40;;;;;;;;;;5041527;28;20222;-37
2024/01/25 11:02:54;;;;;;;;;;;;;;;;;;;;;
2024/01/25 11:05:38;;;;;;;14.47;3.60;;;;;;;;;;4944802;28;20217;-34
2024/01/25 11:08:23;;;;;;;5.93;2.40;;;;;;;;;;4949246;28;20221;-38
2024/01/25 11:14:09;;;;;;;8.47;2.33;;;;;;;;;;4940030;28;20506;-35
2024/01/25 11:26:19;;;;;;;11.27;2.77;;;;;;;;;;4864105;29;20212;-39
2024/01/25 11:28:59;;;;;;;13.43;3.20;;;;;;;;;;4873389;29;20240;-37
2024/01/25 11:31:33;;;;;;;13.30;2.50;;;;;;;;;;4970514;28;20235;-35
2024/01/25 11:37:19;;;;;;;18.40;3.57;;;;;;;;;;5005447;28;20203;-37
2024/01/25 11:39:51;;;;;;;12.63;3.00;;;;;;;;;;5043677;28;20233;-38
2024/01/25 11:45:09;;;;;;;15.97;3.83;;;;;;;;;;5022433;28;20202;-34
2024/01/25 11:47:44;;;;;;;10.17;3.20;;;;;;;;;;5038988;28;20194;-35
2024/01/25 11:50:15;;;;;;;13.43;3.10;;;;;;;;;;5048502;28;20221;-36
2024/01/25 11:53:15;;;;;;;14.13;3.40;;;;;;;;;;5040693;28;20249;-33
2024/01/25 11:55:55;;;;;;;8.57;2.43;;;;;;;;;;4977849;28;20219;-37
2024/01/25 11:59:05;;;;;;;7.77;1.87;;;;;;;;;;5013984;28;20207;-32
2024/01/25 12:01:34;;;;;;;6.10;2.23;;;;;;;;;;5040299;28;20213;-32
2024/01/25 12:04:02;;;;;;;10.37;2.80;;;;;;;;;;5045321;28;20201;-32
2024/01/25 12:06:30;;;;;;;18.33;2.70;;;;;;;;;;5051523;28;20289;-38
2024/01/25 12:09:08;;;;;;;10.97;2.37;;;;;;;;;;5048187;28;20263;-36
2024/01/25 12:11:35;;;;;;;6.57;1.60;;;;;;;;;;5050990;28;20232;-32
2024/01/25 12:14:03;;;;;;;7.97;2.60;;;;;;;;;;5044109;28;20234;-33
2024/01/25 12:16:30;;;;;;;8.43;2.07;;;;;;;;;;5030955;28;20275;-34
2024/01/25 12:21:49;;;;;;;6.53;2.00;;;;;;;;;;5045269;28;20221;-38
2024/01/25 12:24:16;;;;;;;11.40;2.70;;;;;;;;;;5044123;28;20206;-40
2024/01/25 12:26:50;;;;;;;11.50;2.83;;;;;;;;;;5049285;28;20208;-35
2024/01/25 12:29:17;;;;;;;15.50;3.07;;;;;;;;;;5035799;28;20279;-39
2024/01/25 12:31:45;;;;;;;11.93;3.30;;;;;;;;;;5049098;28;20205;-36
2024/01/25 12:34:16;;;;;;;5.10;1.50;;;;;;;;;;5034876;28;20233;-35
2024/01/25 12:36:47;;;;;;;10.70;2.40;;;;;;;;;;5031251;28;20583;-33
2024/01/25 12:39:17;;;;;;;7.03;2.20;;;;;;;;;;5030200;28;20203;-38
2024/01/25 12:41:44;;;;;;;10.77;2.23;;;;;;;;;;5039060;28;20439;-35
2024/01/25 12:44:12;;;;;;;13.00;2.43;;;;;;;;;;5031854;28;20234;-36
2024/01/25 12:46:40;;;;;;;12.83;3.53;;;;;;;;;;5042682;28;20212;-35
2024/01/25 12:49:07;;;;;;;7.70;2.30;;;;;;;;;;5043954;28;20214;-39
2024/01/25 12:51:38;;;;;;;12.73;2.33;;;;;;;;;;5041612;28;20218;-34
2024/01/25 12:54:08;;;;;;;7.13;1.53;;;;;;;;;;5036037;28;20217;-38
2024/01/25 12:56:35;;;;;;;6.83;2.10;;;;;;;;;;5045741;28;20214;-38
2024/01/25 12:59:06;;;;;;;9.73;2.47;;;;;;;;;;5041687;28;20213;-34
2024/01/25 13:01:33;;;;;;;12.77;1.90;;;;;;;;;;5039144;28;20209;-35
2024/01/25 13:04:04;;;;;;;10.97;2.50;;;;;;;;;;5036212;28;20289;-37
2024/01/25 13:06:34;;;;;;;16.60;3.30;;;;;;;;;;5037776;28;20212;-39
2024/01/25 13:09:11;;;;;;;8.63;2.67;;;;;;;;;;5029650;28;20213;-34
2024/01/25 13:11:38;;;;;;;12.70;3.97;;;;;;;;;;5025624;28;20213;-34
2024/01/25 13:14:10;;;;;;;7.50;2.53;;;;;;;;;;5037915;28;20223;-35
2024/01/25 13:16:38;;;;;;;8.87;3.80;;;;;;;;;;5049065;28;20201;-34
2024/01/25 13:19:11;;;;;;;12.53;4.13;;;;;;;;;;5034579;28;20199;-33
2024/01/25 13:21:56;;;;;;;6.37;2.47;;;;;;;;;;5046376;28;20210;-36
2024/01/25 13:24:24;;;;;;;12.53;2.90;;;;;;;;;;5033558;28;20214;-32
2024/01/25 13:26:54;;;;;;;11.43;2.50;;;;;;;;;;5043653;28;20206;-37
2024/01/25 13:29:24;;;;;;;9.57;2.77;;;;;;;;;;5050314;28;20209;-35
2024/01/25 13:31:51;;;;;;;6.43;2.60;;;;;;;;;;5046568;28;20206;-34
2024/01/25 13:34:19;;;;;;;14.93;4.20;;;;;;;;;;5044527;28;20222;-37
2024/01/25 13:39:43;;;;;;;8.37;2.93;;;;;;;;;;5043965;28;20237;-34
2024/01/25 13:42:11;;;;;;;9.07;2.37;;;;;;;;;;5019049;28;20210;-35
2024/01/25 13:44:45;;;;;;;7.83;1.80;;;;;;;;;;5036757;28;20217;-37
2024/01/25 13:47:12;;;;;;;23.40;9.10;;;;;;;;;;5038939;28;20194;-30
2024/01/25 13:49:39;;;;;;;12.63;4.37;;;;;;;;;;5043352;28;20266;-35
2024/01/25 13:52:07;;;;;;;9.13;2.27;;;;;;;;;;5034789;28;20207;-34
2024/01/25 13:54:34;;;;;;;13.10;2.70;;;;;;;;;;5037887;28;20226;-38
2024/01/25 13:57:03;;;;;;;9.43;1.97;;;;;;;;;;5039643;28;20253;-32
2024/01/25 13:59:31;;;;;;;14.70;2.30;;;;;;;;;;5034319;28;20226;-39
2024/01/25 14:01:58;;;;;;;10.30;2.40;;;;;;;;;;5048798;28;20298;-38
2024/01/25 14:04:25;;;;;;;10.60;2.97;;;;;;;;;;5042110;28;20210;-36
2024/01/25 14:06:59;;;;;;;8.67;2.13;;;;;;;;;;5036634;28;20206;-34
2024/01/25 14:09:30;;;;;;;10.77;2.53;;;;;;;;;;5045233;28;20225;-36
2024/01/25 14:11:58;;;;;;;7.03;2.20;;;;;;;;;;5046685;28;20204;-33
2024/01/25 14:14:26;;;;;;;9.33;2.17;;;;;;;;;;5044744;28;20233;-36
2024/01/25 14:16:53;;;;;;;8.00;2.30;;;;;;;;;;5042556;28;20293;-34
2024/01/25 14:19:21;;;;;;;7.30;2.33;;;;;;;;;;5041717;28;20210;-31
2024/01/25 14:21:48;;;;;;;10.13;2.67;;;;;;;;;;5042051;28;20217;-36
2024/01/25 14:24:16;;;;;;;8.50;2.30;;;;;;;;;;5041446;28;20304;-34
2024/01/25 14:26:43;;;;;;;7.97;2.17;;;;;;;;;;5047147;28;20217;-35
2024/01/25 14:29:10;;;;;;;7.83;2.00;;;;;;;;;;5046478;28;20209;-36
2024/01/25 14:31:39;;;;;;;6.23;1.70;;;;;;;;;;5048684;28;20206;-36
2024/01/25 14:34:06;;;;;;;10.27;1.97;;;;;;;;;;5039315;28;20305;-37
2024/01/25 14:36:33;;;;;;;9.57;2.10;;;;;;;;;;5033695;28;20217;-30
2024/01/25 14:39:00;;;;;;;6.60;2.30;;;;;;;;;;5039188;28;20262;-32
2024/01/25 14:41:27;;;;;;;10.90;2.30;;;;;;;;;;5044290;28;20293;-32
2024/01/25 14:43:54;;;;;;;9.17;1.93;;;;;;;;;;5037384;28;20198;-34
2024/01/25 14:46:22;;;;;;;10.60;2.27;;;;;;;;;;5053209;28;20198;-35
2024/01/25 14:48:50;;;;;;;9.07;1.97;;;;;;;;;;5041279;28;20229;-37
2024/01/25 14:51:17;;;;;;;8.93;1.53;;;;;;;;;;5036169;28;20228;-33
2024/01/25 14:53:44;;;;;;;10.53;2.60;;;;;;;;;;5044532;28;20283;-32
2024/01/25 14:56:12;;;;;;;6.80;1.67;;;;;;;;;;5046288;28;20304;-38
2024/01/25 14:58:39;;;;;;;6.53;2.17;;;;;;;;;;5049177;28;20210;-36
2024/01/25 15:01:06;;;;;;;11.23;2.00;;;;;;;;;;5034559;28;20309;-35
2024/01/25 15:03:33;;;;;;;8.47;2.13;;;;;;;;;;5037459;28;20253;-34
2024/01/25 15:06:02;;;;;;;7.17;1.77;;;;;;;;;;5049251;28;20210;-36
2024/01/25 15:08:30;;;;;;;6.47;2.50;;;;;;;;;;5047816;28;20241;-41
2024/01/25 15:10:57;;;;;;;12.47;3.03;;;;;;;;;;5035645;28;20225;-37
2024/01/25 15:13:24;;;;;;;13.40;2.90;;;;;;;;;;5048501;28;20237;-38
2024/01/25 15:15:51;;;;;;;5.90;2.10;;;;;;;;;;5052551;28;20224;-34
2024/01/25 15:18:18;;;;;;;8.67;3.00;;;;;;;;;;5041236;28;20206;-38